sensor_id;sensor_type;location;lat;lon;timestamp;pressure;altitude;pressure_sealevel;temperature;humidity
56042;BME280;48756;41.374;2.066;2022-09-03T00:01:15;100570.56;;;23.52;83.99
56042;BME280;48756;41.374;2.066;2022-09-03T00:04:04;100572.84;;;23.32;84.54
56042;BME280;48756;41.374;2.066;2022-09-03T00:06:39;100577.69;;;23.25;84.55
56042;BME280;48756;41.374;2.066;2022-09-03T00:09:11;100586.38;;;23.14;85.25
56042;BME280;48756;41.374;2.066;2022-09-03T00:14:56;100572.50;;;22.81;86.00
56042;BME280;48756;41.374;2.066;2022-09-03T00:17:29;100573.13;;;22.86;86.55
56042;BME280;48756;41.374;2.066;2022-09-03T00:20:00;100572.88;;;23.03;85.65
56042;BME280;48756;41.374;2.066;2022-09-03T00:22:33;100569.22;;;22.91;86.49
56042;BME280;48756;41.374;2.066;2022-09-03T00:25:03;100578.22;;;23.03;86.28
56042;BME280;48756;41.374;2.066;2022-09-03T00:27:32;100583.72;;;23.14;84.84
56042;BME280;48756;41.374;2.066;2022-09-03T00:30:07;100586.72;;;23.49;83.77
56042;BME280;48756;41.374;2.066;2022-09-03T00:32:36;100586.69;;;23.37;84.42
56042;BME280;48756;41.374;2.066;2022-09-03T00:35:12;100583.19;;;23.22;85.00
56042;BME280;48756;41.374;2.066;2022-09-03T00:37:41;100577.78;;;23.65;86.47
56042;BME280;48756;41.374;2.066;2022-09-03T00:40:19;100584.75;;;23.80;85.21
56042;BME280;48756;41.374;2.066;2022-09-03T00:43:18;100582.97;;;23.39;86.76
56042;BME280;48756;41.374;2.066;2022-09-03T00:52:13;100594.38;;;23.68;84.48
56042;BME280;48756;41.374;2.066;2022-09-03T00:54:47;100587.66;;;23.21;85.35
56042;BME280;48756;41.374;2.066;2022-09-03T00:57:26;100591.38;;;23.19;85.47
56042;BME280;48756;41.374;2.066;2022-09-03T01:00:11;100583.41;;;23.05;85.85
56042;BME280;48756;41.374;2.066;2022-09-03T01:03:06;100579.09;;;22.89;86.82
56042;BME280;48756;41.374;2.066;2022-09-03T01:11:10;100586.75;;;22.80;87.59
56042;BME280;48756;41.374;2.066;2022-09-03T01:14:08;100582.56;;;22.61;88.51
56042;BME280;48756;41.374;2.066;2022-09-03T01:16:48;100586.88;;;22.64;88.85
56042;BME280;48756;41.374;2.066;2022-09-03T01:22:30;100589.59;;;22.62;88.07
56042;BME280;48756;41.374;2.066;2022-09-03T01:30:40;100595.69;;;22.65;87.26
56042;BME280;48756;41.374;2.066;2022-09-03T01:39:04;100587.69;;;23.07;87.68
56042;BME280;48756;41.374;2.066;2022-09-03T01:44:41;100580.75;;;23.19;84.85
56042;BME280;48756;41.374;2.066;2022-09-03T01:58:28;100580.44;;;23.23;85.59
56042;BME280;48756;41.374;2.066;2022-09-03T02:01:00;100570.97;;;23.19;85.84
56042;BME280;48756;41.374;2.066;2022-09-03T02:03:43;100568.09;;;23.22;85.15
56042;BME280;48756;41.374;2.066;2022-09-03T02:06:11;100570.13;;;23.19;85.40
56042;BME280;48756;41.374;2.066;2022-09-03T02:08:37;100578.84;;;23.21;85.28
56042;BME280;48756;41.374;2.066;2022-09-03T02:11:06;100584.66;;;23.13;86.98
56042;BME280;48756;41.374;2.066;2022-09-03T02:13:59;100572.59;;;23.08;86.20
56042;BME280;48756;41.374;2.066;2022-09-03T02:16:30;100565.88;;;23.02;87.74
56042;BME280;48756;41.374;2.066;2022-09-03T02:18:59;100566.06;;;22.99;87.04
56042;BME280;48756;41.374;2.066;2022-09-03T02:21:35;100568.53;;;22.74;87.05
56042;BME280;48756;41.374;2.066;2022-09-03T02:24:04;100559.22;;;22.81;87.80
56042;BME280;48756;41.374;2.066;2022-09-03T02:26:30;100566.34;;;22.80;88.23
56042;BME280;48756;41.374;2.066;2022-09-03T02:28:56;100551.38;;;22.94;87.00
56042;BME280;48756;41.374;2.066;2022-09-03T02:31:22;100545.66;;;23.00;87.36
56042;BME280;48756;41.374;2.066;2022-09-03T02:33:50;100553.94;;;22.95;88.70
56042;BME280;48756;41.374;2.066;2022-09-03T02:36:19;100552.13;;;22.81;89.22
56042;BME280;48756;41.374;2.066;2022-09-03T02:38:46;100555.72;;;22.80;87.78
56042;BME280;48756;41.374;2.066;2022-09-03T02:41:12;100556.00;;;22.76;88.24
56042;BME280;48756;41.374;2.066;2022-09-03T02:46:09;100577.66;;;22.55;88.12
56042;BME280;48756;41.374;2.066;2022-09-03T02:48:37;100581.81;;;22.74;88.25
56042;BME280;48756;41.374;2.066;2022-09-03T02:51:02;100566.16;;;22.55;88.93
56042;BME280;48756;41.374;2.066;2022-09-03T02:53:28;100556.69;;;22.65;87.66
56042;BME280;48756;41.374;2.066;2022-09-03T02:55:58;100552.03;;;22.40;89.16
56042;BME280;48756;41.374;2.066;2022-09-03T02:58:24;100534.31;;;22.41;89.70
56042;BME280;48756;41.374;2.066;2022-09-03T03:00:50;100509.16;;;22.60;88.64
56042;BME280;48756;41.374;2.066;2022-09-03T03:03:16;100511.72;;;22.62;88.66
56042;BME280;48756;41.374;2.066;2022-09-03T03:05:43;100518.25;;;22.85;87.91
56042;BME280;48756;41.374;2.066;2022-09-03T03:08:10;100523.19;;;22.91;88.02
56042;BME280;48756;41.374;2.066;2022-09-03T03:10:40;100532.03;;;22.91;89.15
56042;BME280;48756;41.374;2.066;2022-09-03T03:13:05;100533.84;;;22.91;88.41
56042;BME280;48756;41.374;2.066;2022-09-03T03:15:31;100532.03;;;22.91;88.31
56042;BME280;48756;41.374;2.066;2022-09-03T03:17:57;100539.03;;;22.92;88.64
56042;BME280;48756;41.374;2.066;2022-09-03T03:20:22;100541.25;;;22.86;87.09
56042;BME280;48756;41.374;2.066;2022-09-03T03:22:48;100542.53;;;22.79;87.61
56042;BME280;48756;41.374;2.066;2022-09-03T03:25:16;100557.06;;;22.73;87.77
56042;BME280;48756;41.374;2.066;2022-09-03T03:27:42;100577.84;;;22.67;87.61
56042;BME280;48756;41.374;2.066;2022-09-03T03:30:09;100603.34;;;22.55;88.06
56042;BME280;48756;41.374;2.066;2022-09-03T03:32:36;100583.34;;;22.78;87.05
56042;BME280;48756;41.374;2.066;2022-09-03T03:35:03;100557.56;;;22.66;87.52
56042;BME280;48756;41.374;2.066;2022-09-03T03:37:30;100570.31;;;22.30;88.58
56042;BME280;48756;41.374;2.066;2022-09-03T03:39:55;100576.72;;;22.42;88.54
56042;BME280;48756;41.374;2.066;2022-09-03T03:42:21;100568.84;;;22.41;87.95
56042;BME280;48756;41.374;2.066;2022-09-03T03:44:46;100558.69;;;22.47;88.68
56042;BME280;48756;41.374;2.066;2022-09-03T03:47:12;100557.84;;;22.47;87.30
56042;BME280;48756;41.374;2.066;2022-09-03T03:49:42;100576.13;;;22.51;86.85
56042;BME280;48756;41.374;2.066;2022-09-03T03:52:10;100573.00;;;22.59;86.91
56042;BME280;48756;41.374;2.066;2022-09-03T03:54:36;100555.25;;;22.59;87.45
56042;BME280;48756;41.374;2.066;2022-09-03T03:57:01;100541.22;;;22.29;89.01
56042;BME280;48756;41.374;2.066;2022-09-03T03:59:27;100527.03;;;22.44;88.18
56042;BME280;48756;41.374;2.066;2022-09-03T04:01:55;100547.13;;;22.48;87.61
56042;BME280;48756;41.374;2.066;2022-09-03T04:04:21;100565.31;;;22.54;86.23
56042;BME280;48756;41.374;2.066;2022-09-03T04:06:47;100553.84;;;22.54;87.49
56042;BME280;48756;41.374;2.066;2022-09-03T04:09:12;100542.63;;;22.63;87.40
56042;BME280;48756;41.374;2.066;2022-09-03T04:11:38;100550.13;;;22.85;87.82
56042;BME280;48756;41.374;2.066;2022-09-03T04:14:06;100553.84;;;22.54;87.40
56042;BME280;48756;41.374;2.066;2022-09-03T04:16:34;100570.22;;;22.32;88.20
56042;BME280;48756;41.374;2.066;2022-09-03T04:19:00;100569.50;;;22.44;88.52
56042;BME280;48756;41.374;2.066;2022-09-03T04:21:28;100573.66;;;22.48;87.42
56042;BME280;48756;41.374;2.066;2022-09-03T04:23:55;100576.03;;;22.53;85.94
56042;BME280;48756;41.374;2.066;2022-09-03T04:26:23;100582.41;;;22.65;86.12
56042;BME280;48756;41.374;2.066;2022-09-03T04:28:49;100583.25;;;22.51;85.29
56042;BME280;48756;41.374;2.066;2022-09-03T04:31:17;100583.72;;;22.43;86.60
56042;BME280;48756;41.374;2.066;2022-09-03T04:33:43;100587.31;;;22.42;86.58
56042;BME280;48756;41.374;2.066;2022-09-03T04:36:14;100584.66;;;22.56;85.62
56042;BME280;48756;41.374;2.066;2022-09-03T04:38:42;100585.03;;;22.79;86.21
56042;BME280;48756;41.374;2.066;2022-09-03T04:41:11;100582.22;;;22.82;84.75
56042;BME280;48756;41.374;2.066;2022-09-03T04:43:39;100580.91;;;22.89;85.24
56042;BME280;48756;41.374;2.066;2022-09-03T04:46:08;100586.03;;;22.92;84.79
56042;BME280;48756;41.374;2.066;2022-09-03T04:48:35;100572.72;;;22.49;85.35
56042;BME280;48756;41.374;2.066;2022-09-03T04:51:05;100572.91;;;22.46;86.79
56042;BME280;48756;41.374;2.066;2022-09-03T04:53:40;100566.47;;;22.50;85.69
56042;BME280;48756;41.374;2.066;2022-09-03T04:56:17;100573.59;;;22.64;85.74
56042;BME280;48756;41.374;2.066;2022-09-03T04:58:43;100575.00;;;22.70;84.27
56042;BME280;48756;41.374;2.066;2022-09-03T05:01:11;100563.97;;;22.61;84.87
56042;BME280;48756;41.374;2.066;2022-09-03T05:03:37;100571.00;;;22.48;85.39
56042;BME280;48756;41.374;2.066;2022-09-03T05:06:03;100561.34;;;22.47;85.89
56042;BME280;48756;41.374;2.066;2022-09-03T05:08:31;100553.28;;;22.49;85.49
56042;BME280;48756;41.374;2.066;2022-09-03T05:11:00;100550.69;;;22.33;86.40
56042;BME280;48756;41.374;2.066;2022-09-03T05:13:26;100547.69;;;22.68;87.25
56042;BME280;48756;41.374;2.066;2022-09-03T05:15:58;100548.53;;;22.82;85.28
56042;BME280;48756;41.374;2.066;2022-09-03T05:18:23;100539.41;;;22.58;84.86
56042;BME280;48756;41.374;2.066;2022-09-03T05:20:59;100539.69;;;22.96;93.70
56042;BME280;48756;41.374;2.066;2022-09-03T05:23:29;100544.84;;;22.71;87.99
56042;BME280;48756;41.374;2.066;2022-09-03T05:25:57;100540.06;;;22.76;85.93
56042;BME280;48756;41.374;2.066;2022-09-03T05:28:24;100550.34;;;22.82;85.73
56042;BME280;48756;41.374;2.066;2022-09-03T05:31:04;100549.84;;;22.75;85.58
56042;BME280;48756;41.374;2.066;2022-09-03T05:33:33;100552.91;;;22.69;85.24
56042;BME280;48756;41.374;2.066;2022-09-03T05:36:01;100549.00;;;22.60;86.42
56042;BME280;48756;41.374;2.066;2022-09-03T05:38:27;100559.41;;;22.78;85.64
56042;BME280;48756;41.374;2.066;2022-09-03T05:40:53;100565.22;;;22.84;85.70
56042;BME280;48756;41.374;2.066;2022-09-03T05:43:18;100564.63;;;22.79;85.21
56042;BME280;48756;41.374;2.066;2022-09-03T05:45:45;100561.34;;;22.90;85.57
56042;BME280;48756;41.374;2.066;2022-09-03T05:48:11;100566.66;;;22.90;84.15
56042;BME280;48756;41.374;2.066;2022-09-03T05:50:37;100560.66;;;23.01;84.33
56042;BME280;48756;41.374;2.066;2022-09-03T05:53:03;100560.63;;;23.15;84.47
56042;BME280;48756;41.374;2.066;2022-09-03T05:55:28;100577.44;;;23.15;85.30
56042;BME280;48756;41.374;2.066;2022-09-03T05:57:54;100566.00;;;22.86;84.08
56042;BME280;48756;41.374;2.066;2022-09-03T06:00:19;100563.44;;;22.71;84.60
56042;BME280;48756;41.374;2.066;2022-09-03T06:02:52;100560.00;;;22.54;85.44
56042;BME280;48756;41.374;2.066;2022-09-03T06:05:18;100556.41;;;22.70;85.27
56042;BME280;48756;41.374;2.066;2022-09-03T06:07:47;100569.94;;;22.79;85.81
56042;BME280;48756;41.374;2.066;2022-09-03T06:10:14;100573.09;;;23.00;84.26
56042;BME280;48756;41.374;2.066;2022-09-03T06:12:42;100578.63;;;23.24;84.03
56042;BME280;48756;41.374;2.066;2022-09-03T06:15:13;100569.81;;;23.23;83.66
56042;BME280;48756;41.374;2.066;2022-09-03T06:17:39;100564.88;;;22.90;84.84
56042;BME280;48756;41.374;2.066;2022-09-03T06:20:05;100562.50;;;22.86;85.07
56042;BME280;48756;41.374;2.066;2022-09-03T06:22:30;100565.13;;;23.00;84.29
56042;BME280;48756;41.374;2.066;2022-09-03T06:24:56;100572.13;;;23.15;83.38
56042;BME280;48756;41.374;2.066;2022-09-03T06:27:21;100568.06;;;23.10;83.47
56042;BME280;48756;41.374;2.066;2022-09-03T06:29:48;100572.47;;;23.23;82.05
56042;BME280;48756;41.374;2.066;2022-09-03T06:32:14;100580.28;;;23.12;83.36
56042;BME280;48756;41.374;2.066;2022-09-03T06:34:39;100591.72;;;23.27;82.54
56042;BME280;48756;41.374;2.066;2022-09-03T06:37:05;100599.44;;;23.32;82.03
56042;BME280;48756;41.374;2.066;2022-09-03T06:39:31;100605.97;;;23.26;82.74
56042;BME280;48756;41.374;2.066;2022-09-03T06:41:56;100603.00;;;23.31;82.57
56042;BME280;48756;41.374;2.066;2022-09-03T06:44:22;100606.81;;;23.41;81.80
56042;BME280;48756;41.374;2.066;2022-09-03T06:46:47;100608.16;;;23.34;82.15
56042;BME280;48756;41.374;2.066;2022-09-03T06:49:14;100614.56;;;23.17;82.43
56042;BME280;48756;41.374;2.066;2022-09-03T06:51:40;100610.19;;;23.16;82.68
56042;BME280;48756;41.374;2.066;2022-09-03T06:54:09;100613.91;;;23.13;82.66
56042;BME280;48756;41.374;2.066;2022-09-03T06:56:36;100620.53;;;23.06;82.88
56042;BME280;48756;41.374;2.066;2022-09-03T06:59:08;100627.53;;;23.21;81.99
56042;BME280;48756;41.374;2.066;2022-09-03T07:01:34;100625.00;;;23.47;80.60
56042;BME280;48756;41.374;2.066;2022-09-03T07:04:03;100629.06;;;23.26;81.03
56042;BME280;48756;41.374;2.066;2022-09-03T07:06:31;100631.56;;;23.56;79.77
56042;BME280;48756;41.374;2.066;2022-09-03T07:08:57;100630.47;;;23.72;80.02
56042;BME280;48756;41.374;2.066;2022-09-03T07:11:29;100618.63;;;23.91;78.66
56042;BME280;48756;41.374;2.066;2022-09-03T07:13:56;100612.34;;;23.92;78.39
56042;BME280;48756;41.374;2.066;2022-09-03T07:16:33;100619.25;;;23.81;78.09
56042;BME280;48756;41.374;2.066;2022-09-03T07:18:59;100618.88;;;24.13;75.98
56042;BME280;48756;41.374;2.066;2022-09-03T07:21:29;100622.06;;;24.18;76.94
56042;BME280;48756;41.374;2.066;2022-09-03T07:23:55;100627.25;;;24.34;76.26
56042;BME280;48756;41.374;2.066;2022-09-03T07:26:27;100624.13;;;24.27;75.31
56042;BME280;48756;41.374;2.066;2022-09-03T07:28:53;100617.66;;;24.57;76.14
56042;BME280;48756;41.374;2.066;2022-09-03T07:31:22;100624.38;;;24.75;74.07
56042;BME280;48756;41.374;2.066;2022-09-03T07:34:00;100623.31;;;24.65;75.21
56042;BME280;48756;41.374;2.066;2022-09-03T07:36:27;100620.09;;;24.85;73.99
56042;BME280;48756;41.374;2.066;2022-09-03T07:38:55;100617.13;;;24.90;74.43
56042;BME280;48756;41.374;2.066;2022-09-03T07:41:25;100624.72;;;24.45;75.87
56042;BME280;48756;41.374;2.066;2022-09-03T07:43:51;100622.34;;;24.79;75.94
56042;BME280;48756;41.374;2.066;2022-09-03T07:46:23;100627.38;;;24.70;76.16
56042;BME280;48756;41.374;2.066;2022-09-03T07:48:57;100628.66;;;24.78;76.18
56042;BME280;48756;41.374;2.066;2022-09-03T07:51:26;100630.25;;;24.80;76.40
56042;BME280;48756;41.374;2.066;2022-09-03T07:53:55;100625.13;;;24.64;75.71
56042;BME280;48756;41.374;2.066;2022-09-03T07:56:22;100630.91;;;24.46;77.10
56042;BME280;48756;41.374;2.066;2022-09-03T07:58:48;100613.28;;;24.94;76.15
56042;BME280;48756;41.374;2.066;2022-09-03T08:01:19;100622.34;;;24.91;75.28
56042;BME280;48756;41.374;2.066;2022-09-03T08:03:47;100615.94;;;25.19;73.97
56042;BME280;48756;41.374;2.066;2022-09-03T08:06:14;100615.94;;;25.43;74.19
56042;BME280;48756;41.374;2.066;2022-09-03T08:08:41;100625.06;;;25.64;73.31
56042;BME280;48756;41.374;2.066;2022-09-03T08:11:19;100623.28;;;25.52;71.81
56042;BME280;48756;41.374;2.066;2022-09-03T08:13:56;100619.53;;;25.55;72.32
56042;BME280;48756;41.374;2.066;2022-09-03T08:16:31;100635.13;;;25.48;72.53
56042;BME280;48756;41.374;2.066;2022-09-03T08:18:57;100632.03;;;25.78;72.09
56042;BME280;48756;41.374;2.066;2022-09-03T08:21:23;100640.75;;;26.28;70.17
56042;BME280;48756;41.374;2.066;2022-09-03T08:23:51;100636.19;;;26.06;69.65
56042;BME280;48756;41.374;2.066;2022-09-03T08:26:18;100644.53;;;26.02;69.77
56042;BME280;48756;41.374;2.066;2022-09-03T08:28:44;100638.56;;;25.98;70.22
56042;BME280;48756;41.374;2.066;2022-09-03T08:31:19;100631.53;;;25.97;70.61
56042;BME280;48756;41.374;2.066;2022-09-03T08:33:50;100633.94;;;25.89;70.94
56042;BME280;48756;41.374;2.066;2022-09-03T08:36:21;100636.63;;;26.00;71.95
56042;BME280;48756;41.374;2.066;2022-09-03T08:38:47;100642.38;;;26.07;71.08
56042;BME280;48756;41.374;2.066;2022-09-03T08:55:33;100645.47;;;26.93;66.59
56042;BME280;48756;41.374;2.066;2022-09-03T08:58:05;100648.41;;;26.79;67.25
56042;BME280;48756;41.374;2.066;2022-09-03T09:05:53;100652.44;;;26.96;68.10
56042;BME280;48756;41.374;2.066;2022-09-03T09:11:07;100658.28;;;27.23;67.03
56042;BME280;48756;41.374;2.066;2022-09-03T09:24:49;100685.88;;;27.24;66.30
56042;BME280;48756;41.374;2.066;2022-09-03T09:27:18;100680.00;;;27.52;67.93
56042;BME280;48756;41.374;2.066;2022-09-03T09:29:48;100683.41;;;27.65;66.31
56042;BME280;48756;41.374;2.066;2022-09-03T09:32:16;100691.75;;;27.83;66.06
56042;BME280;48756;41.374;2.066;2022-09-03T09:34:43;100692.56;;;27.63;64.64
56042;BME280;48756;41.374;2.066;2022-09-03T09:37:14;100688.94;;;28.28;63.30
56042;BME280;48756;41.374;2.066;2022-09-03T09:39:40;100693.25;;;28.82;59.51
56042;BME280;48756;41.374;2.066;2022-09-03T09:42:24;100684.81;;;29.17;59.81
56042;BME280;48756;41.374;2.066;2022-09-03T09:44:50;100686.06;;;28.41;60.92
56042;BME280;48756;41.374;2.066;2022-09-03T09:47:27;100692.59;;;28.68;60.03
56042;BME280;48756;41.374;2.066;2022-09-03T09:49:59;100687.31;;;28.78;59.27
56042;BME280;48756;41.374;2.066;2022-09-03T09:52:28;100678.53;;;29.37;57.80
56042;BME280;48756;41.374;2.066;2022-09-03T09:55:08;100678.69;;;29.95;55.96
56042;BME280;48756;41.374;2.066;2022-09-03T09:57:34;100679.56;;;30.05;54.22
56042;BME280;48756;41.374;2.066;2022-09-03T10:00:12;100682.25;;;30.15;55.12
56042;BME280;48756;41.374;2.066;2022-09-03T10:02:47;100673.59;;;29.92;55.09
56042;BME280;48756;41.374;2.066;2022-09-03T10:05:22;100680.97;;;30.29;53.01
56042;BME280;48756;41.374;2.066;2022-09-03T10:08:03;100673.72;;;30.00;53.93
56042;BME280;48756;41.374;2.066;2022-09-03T10:10:33;100680.81;;;29.42;54.32
56042;BME280;48756;41.374;2.066;2022-09-03T10:13:15;100669.34;;;29.40;54.97
56042;BME280;48756;41.374;2.066;2022-09-03T10:15:44;100673.59;;;29.33;54.53
56042;BME280;48756;41.374;2.066;2022-09-03T10:21:07;100663.91;;;29.11;55.24
56042;BME280;48756;41.374;2.066;2022-09-03T10:26:28;100658.59;;;28.69;57.38
56042;BME280;48756;41.374;2.066;2022-09-03T10:29:01;100661.91;;;28.52;58.79
56042;BME280;48756;41.374;2.066;2022-09-03T10:36:41;100666.28;;;30.04;54.16
56042;BME280;48756;41.374;2.066;2022-09-03T10:39:21;100670.34;;;30.56;53.43
56042;BME280;48756;41.374;2.066;2022-09-03T10:44:47;100658.06;;;30.05;54.10
56042;BME280;48756;41.374;2.066;2022-09-03T10:47:44;100658.97;;;30.82;52.60
56042;BME280;48756;41.374;2.066;2022-09-03T10:50:18;100658.44;;;30.68;54.16
56042;BME280;48756;41.374;2.066;2022-09-03T10:58:59;100658.53;;;30.86;51.02
56042;BME280;48756;41.374;2.066;2022-09-03T11:06:57;100651.94;;;30.52;50.25
56042;BME280;48756;41.374;2.066;2022-09-03T11:10:06;100648.41;;;30.61;51.62
56042;BME280;48756;41.374;2.066;2022-09-03T11:12:41;100648.38;;;30.70;51.42
56042;BME280;48756;41.374;2.066;2022-09-03T11:15:22;100653.63;;;31.09;49.41
56042;BME280;48756;41.374;2.066;2022-09-03T11:17:57;100657.84;;;31.12;48.52
56042;BME280;48756;41.374;2.066;2022-09-03T11:20:25;100657.25;;;31.27;48.41
56042;BME280;48756;41.374;2.066;2022-09-03T11:23:00;100652.09;;;30.97;49.19
56042;BME280;48756;41.374;2.066;2022-09-03T11:25:36;100660.84;;;30.52;50.58
56042;BME280;48756;41.374;2.066;2022-09-03T11:33:33;100650.97;;;29.95;50.99
56042;BME280;48756;41.374;2.066;2022-09-03T11:36:05;100661.00;;;29.73;53.03
56042;BME280;48756;41.374;2.066;2022-09-03T11:38:31;100648.00;;;30.36;52.60
56042;BME280;48756;41.374;2.066;2022-09-03T11:41:00;100647.72;;;30.39;53.42
56042;BME280;48756;41.374;2.066;2022-09-03T11:43:32;100642.78;;;30.06;54.89
56042;BME280;48756;41.374;2.066;2022-09-03T11:46:08;100639.56;;;31.15;51.82
56042;BME280;48756;41.374;2.066;2022-09-03T11:48:51;100648.25;;;30.53;51.61
56042;BME280;48756;41.374;2.066;2022-09-03T11:54:00;100642.03;;;30.62;52.47
56042;BME280;48756;41.374;2.066;2022-09-03T11:56:27;100644.53;;;31.10;51.71
56042;BME280;48756;41.374;2.066;2022-09-03T12:10:50;100645.69;;;31.07;50.55
56042;BME280;48756;41.374;2.066;2022-09-03T12:18:48;100628.28;;;30.65;52.12
56042;BME280;48756;41.374;2.066;2022-09-03T12:21:17;100638.91;;;30.57;52.14
56042;BME280;48756;41.374;2.066;2022-09-03T12:23:48;100643.19;;;30.96;51.61
56042;BME280;48756;41.374;2.066;2022-09-03T12:26:16;100644.88;;;30.97;52.82
56042;BME280;48756;41.374;2.066;2022-09-03T12:28:58;100635.06;;;30.69;53.29
56042;BME280;48756;41.374;2.066;2022-09-03T12:31:30;100627.31;;;31.30;49.90
56042;BME280;48756;41.374;2.066;2022-09-03T12:34:02;100634.63;;;30.73;52.64
56042;BME280;48756;41.374;2.066;2022-09-03T12:36:39;100624.53;;;31.22;50.53
56042;BME280;48756;41.374;2.066;2022-09-03T12:39:25;100631.59;;;31.68;50.18
56042;BME280;48756;41.374;2.066;2022-09-03T12:42:04;100628.88;;;31.68;50.53
56042;BME280;48756;41.374;2.066;2022-09-03T12:44:37;100615.66;;;31.57;50.87
56042;BME280;48756;41.374;2.066;2022-09-03T12:47:15;100617.34;;;30.76;52.56
56042;BME280;48756;41.374;2.066;2022-09-03T12:49:44;100619.56;;;31.45;51.86
56042;BME280;48756;41.374;2.066;2022-09-03T12:52:29;100619.19;;;31.58;49.89
56042;BME280;48756;41.374;2.066;2022-09-03T12:55:00;100615.56;;;31.31;52.19
56042;BME280;48756;41.374;2.066;2022-09-03T12:57:55;100606.56;;;31.41;52.41
56042;BME280;48756;41.374;2.066;2022-09-03T13:00:19;100604.81;;;31.49;51.77
56042;BME280;48756;41.374;2.066;2022-09-03T13:05:20;100604.78;;;31.77;49.44
56042;BME280;48756;41.374;2.066;2022-09-03T13:07:51;100602.97;;;31.50;50.89
56042;BME280;48756;41.374;2.066;2022-09-03T13:10:26;100599.88;;;31.27;51.27
56042;BME280;48756;41.374;2.066;2022-09-03T13:13:01;100598.84;;;30.54;53.92
56042;BME280;48756;41.374;2.066;2022-09-03T13:15:28;100593.13;;;30.76;51.48
56042;BME280;48756;41.374;2.066;2022-09-03T13:20:48;100587.63;;;31.32;52.88
56042;BME280;48756;41.374;2.066;2022-09-03T13:34:47;100579.25;;;31.08;53.39
56042;BME280;48756;41.374;2.066;2022-09-03T13:38:03;100582.03;;;30.89;53.18
56042;BME280;48756;41.374;2.066;2022-09-03T13:40:35;100572.69;;;30.46;56.38
56042;BME280;48756;41.374;2.066;2022-09-03T13:46:02;100564.72;;;30.54;54.86
56042;BME280;48756;41.374;2.066;2022-09-03T13:48:39;100565.38;;;30.75;55.56
56042;BME280;48756;41.374;2.066;2022-09-03T13:51:29;100563.84;;;30.73;55.32
56042;BME280;48756;41.374;2.066;2022-09-03T13:53:58;100563.09;;;31.08;55.32
56042;BME280;48756;41.374;2.066;2022-09-03T14:02:09;100567.03;;;30.86;55.37
56042;BME280;48756;41.374;2.066;2022-09-03T14:04:42;100548.59;;;30.91;56.18
56042;BME280;48756;41.374;2.066;2022-09-03T14:07:14;100550.94;;;30.76;56.21
56042;BME280;48756;41.374;2.066;2022-09-03T14:10:08;100558.59;;;30.34;59.80
56042;BME280;48756;41.374;2.066;2022-09-03T14:12:48;100558.63;;;29.96;60.37
56042;BME280;48756;41.374;2.066;2022-09-03T14:15:26;100542.88;;;30.39;59.96
56042;BME280;48756;41.374;2.066;2022-09-03T14:20:31;100548.31;;;29.43;63.57
56042;BME280;48756;41.374;2.066;2022-09-03T14:23:02;100554.66;;;30.00;61.98
56042;BME280;48756;41.374;2.066;2022-09-03T14:25:28;100549.75;;;29.56;61.88
56042;BME280;48756;41.374;2.066;2022-09-03T14:28:10;100549.03;;;29.83;63.44
56042;BME280;48756;41.374;2.066;2022-09-03T14:30:48;100542.81;;;29.83;63.11
56042;BME280;48756;41.374;2.066;2022-09-03T14:40:02;100542.34;;;30.26;61.43
56042;BME280;48756;41.374;2.066;2022-09-03T14:42:40;100550.03;;;29.73;64.72
56042;BME280;48756;41.374;2.066;2022-09-03T14:51:22;100543.78;;;28.84;67.99
56042;BME280;48756;41.374;2.066;2022-09-03T14:54:00;100539.41;;;28.83;67.68
56042;BME280;48756;41.374;2.066;2022-09-03T15:02:26;100553.00;;;28.91;67.87
56042;BME280;48756;41.374;2.066;2022-09-03T15:05:14;100543.56;;;28.66;69.07
56042;BME280;48756;41.374;2.066;2022-09-03T15:08:15;100536.78;;;28.62;68.61
56042;BME280;48756;41.374;2.066;2022-09-03T15:10:48;100530.56;;;28.52;68.48
56042;BME280;48756;41.374;2.066;2022-09-03T15:13:23;100534.34;;;28.28;70.52
56042;BME280;48756;41.374;2.066;2022-09-03T15:18:49;100532.78;;;28.05;73.26
56042;BME280;48756;41.374;2.066;2022-09-03T15:32:16;100575.53;;;27.86;77.69
56042;BME280;48756;41.374;2.066;2022-09-03T15:34:49;100576.53;;;27.73;77.26
56042;BME280;48756;41.374;2.066;2022-09-03T15:37:24;100574.13;;;27.70;77.04
56042;BME280;48756;41.374;2.066;2022-09-03T15:40:09;100583.72;;;27.73;76.18
56042;BME280;48756;41.374;2.066;2022-09-03T15:42:41;100591.59;;;27.86;75.83
56042;BME280;48756;41.374;2.066;2022-09-03T15:48:16;100624.81;;;27.83;75.84
56042;BME280;48756;41.374;2.066;2022-09-03T15:51:10;100628.97;;;27.76;77.54
56042;BME280;48756;41.374;2.066;2022-09-03T16:04:41;100629.63;;;27.68;79.18
56042;BME280;48756;41.374;2.066;2022-09-03T16:07:29;100629.06;;;27.42;80.83
56042;BME280;48756;41.374;2.066;2022-09-03T16:10:15;100624.56;;;27.32;81.01
56042;BME280;48756;41.374;2.066;2022-09-03T16:15:39;100594.91;;;27.24;82.72
56042;BME280;48756;41.374;2.066;2022-09-03T16:20:42;100595.00;;;27.33;81.14
56042;BME280;48756;41.374;2.066;2022-09-03T16:23:18;100601.72;;;27.28;82.89
56042;BME280;48756;41.374;2.066;2022-09-03T16:26:03;100598.13;;;27.50;81.40
56042;BME280;48756;41.374;2.066;2022-09-03T16:28:40;100596.75;;;27.23;82.73
56042;BME280;48756;41.374;2.066;2022-09-03T16:42:30;100629.94;;;27.21;82.02
56042;BME280;48756;41.374;2.066;2022-09-03T16:48:15;100655.09;;;26.96;85.68
56042;BME280;48756;41.374;2.066;2022-09-03T16:50:53;100660.78;;;26.91;84.56
56042;BME280;48756;41.374;2.066;2022-09-03T16:53:55;100656.53;;;26.77;85.92
56042;BME280;48756;41.374;2.066;2022-09-03T17:02:22;100654.81;;;26.65;86.83
56042;BME280;48756;41.374;2.066;2022-09-03T17:11:00;100625.41;;;26.88;84.75